Terminal Aerodrome Forecast
Issued by NWS Topeka, KS

Home | Current Version | Previous Version | Graphics & Text | Print | Product List | Glossary On
Versions: 1 2 3 4 5 6 7 8 9 10 11 12 13 14 15 16 17 18 19 20 21 22
000
FTUS43 KTOP 050300 AAB
TAFTOP
TAF AMD
KTOP 050322Z 0503/0524 VRB15KT P6SM VCTS BKN040CB
      TEMPO 0503/0506 3SM +TSRA BR BKN040CB
     FM050600 16006KT P6SM SCT050 BKN120
     FM051600 18014G21KT P6SM SCT250=

USA.gov is the U.S. government's official web portal to all federal, state and local government web resources and services.